createdAt,value
2023-02-25T00:02:10.501Z,15.57
2023-02-25T00:04:38.700Z,15.10
2023-02-25T00:07:10.082Z,10.60
2023-02-25T00:09:40.689Z,11.93
2023-02-25T00:12:09.077Z,9.00
2023-02-25T00:14:37.260Z,11.57
2023-02-25T00:17:09.301Z,12.33
2023-02-25T00:19:37.466Z,9.50
2023-02-25T00:22:05.663Z,12.63
2023-02-25T00:24:35.859Z,14.10
2023-02-25T00:27:04.171Z,16.07
2023-02-25T00:29:35.107Z,10.50
2023-02-25T00:32:05.497Z,7.60
2023-02-25T00:34:35.195Z,12.50
2023-02-25T00:37:03.464Z,9.40
2023-02-25T00:39:42.521Z,15.50
2023-02-25T00:42:14.834Z,11.90
2023-02-25T00:44:46.152Z,7.53
2023-02-25T00:47:17.689Z,17.80
2023-02-25T00:49:48.561Z,13.43
2023-02-25T00:52:19.164Z,14.93
2023-02-25T00:54:48.152Z,15.10
2023-02-25T00:57:16.343Z,15.23
2023-02-25T00:59:44.534Z,12.53
2023-02-25T01:02:14.941Z,10.37
2023-02-25T01:04:47.194Z,13.83
2023-02-25T01:07:16.503Z,11.13
2023-02-25T01:09:44.608Z,10.23
2023-02-25T01:12:12.966Z,9.23
2023-02-25T01:14:44.839Z,11.27
2023-02-25T01:17:15.418Z,9.33
2023-02-25T01:19:47.009Z,8.97
2023-02-25T01:22:16.192Z,12.60
2023-02-25T01:24:44.368Z,14.57
2023-02-25T01:27:14.704Z,17.40
2023-02-25T01:29:45.362Z,7.37
2023-02-25T01:32:15.324Z,14.50
2023-02-25T01:34:43.722Z,7.80
2023-02-25T01:37:13.258Z,11.67
2023-02-25T01:39:41.715Z,9.13
2023-02-25T01:42:15.446Z,11.07
2023-02-25T01:45:17.500Z,13.77
2023-02-25T01:47:51.475Z,9.30
2023-02-25T01:50:20.428Z,12.53
2023-02-25T01:52:53.040Z,15.77
2023-02-25T01:55:21.339Z,12.67
2023-02-25T01:57:52.247Z,9.00
2023-02-25T02:00:23.915Z,9.83
2023-02-25T02:02:52.486Z,10.80
2023-02-25T02:05:31.144Z,16.00
2023-02-25T02:08:03.237Z,7.47
2023-02-25T02:10:32.118Z,14.37
2023-02-25T02:13:00.296Z,12.63
2023-02-25T02:15:34.481Z,8.63
2023-02-25T02:18:06.745Z,14.90
2023-02-25T02:20:51.705Z,8.77
2023-02-25T02:23:52.567Z,8.87
2023-02-25T02:27:00.851Z,8.90
2023-02-25T02:29:56.465Z,11.57
2023-02-25T02:32:35.035Z,6.00
2023-02-25T02:35:14.848Z,10.00
2023-02-25T02:37:54.599Z,20.60
2023-02-25T02:40:34.395Z,14.80
2023-02-25T02:43:18.304Z,13.83
2023-02-25T02:45:51.624Z,11.53
2023-02-25T02:48:31.305Z,11.33
2023-02-25T02:51:05.037Z,9.17
2023-02-25T02:53:37.711Z,8.70
2023-02-25T02:56:09.006Z,7.63
2023-02-25T02:58:41.944Z,10.37
2023-02-25T03:01:15.215Z,9.40
2023-02-25T03:03:48.046Z,14.40
2023-02-25T03:06:20.018Z,9.07
2023-02-25T03:08:52.345Z,7.53
2023-02-25T03:11:23.244Z,11.70
2023-02-25T03:13:51.962Z,9.97
2023-02-25T03:16:27.237Z,10.60
2023-02-25T03:19:03.788Z,8.60
2023-02-25T03:21:39.628Z,12.27
2023-02-25T03:24:16.455Z,16.93
2023-02-25T03:26:44.899Z,8.93
2023-02-25T03:29:18.418Z,13.20
2023-02-25T03:31:52.976Z,13.77
2023-02-25T03:34:26.550Z,8.00
2023-02-25T03:36:59.344Z,10.43
2023-02-25T03:39:30.552Z,14.37
2023-02-25T03:42:03.790Z,19.30
2023-02-25T03:44:35.819Z,9.87
2023-02-25T03:47:11.868Z,11.93
2023-02-25T03:49:49.265Z,8.73
2023-02-25T03:52:23.123Z,13.67
2023-02-25T03:54:59.352Z,5.47
2023-02-25T03:57:35.643Z,9.77
2023-02-25T04:00:15.904Z,5.77
2023-02-25T04:02:44.948Z,7.97
2023-02-25T04:05:15.381Z,4.37
2023-02-25T04:07:43.644Z,10.73
2023-02-25T04:10:14.125Z,13.50
2023-02-25T04:12:42.392Z,9.77
2023-02-25T04:15:11.411Z,11.73
2023-02-25T04:17:39.569Z,10.40
2023-02-25T04:20:08.439Z,10.07
2023-02-25T04:22:40.513Z,11.80
2023-02-25T04:25:09.446Z,11.80
2023-02-25T04:27:37.516Z,13.87
2023-02-25T04:30:08.957Z,12.27
2023-02-25T04:32:37.126Z,12.80
2023-02-25T04:35:07.342Z,18.73
2023-02-25T04:37:35.458Z,15.00
2023-02-25T04:40:11.917Z,13.63
2023-02-25T04:42:42.874Z,14.27
2023-02-25T04:45:12.506Z,15.17
2023-02-25T04:47:40.740Z,11.97
2023-02-25T04:50:11.744Z,12.43
2023-02-25T04:52:39.988Z,12.20
2023-02-25T04:55:12.506Z,16.10
2023-02-25T04:57:43.258Z,19.00
2023-02-25T05:00:19.248Z,19.90
2023-02-25T05:02:48.386Z,19.87
2023-02-25T05:05:17.348Z,18.00
2023-02-25T05:07:45.510Z,17.40
2023-02-25T05:10:17.715Z,18.10
2023-02-25T05:12:48.077Z,14.73
2023-02-25T05:15:16.252Z,14.30
2023-02-25T05:17:44.369Z,13.77
2023-02-25T05:20:14.896Z,15.13
2023-02-25T05:22:43.281Z,12.13
2023-02-25T05:25:14.246Z,15.00
2023-02-25T05:27:43.705Z,9.23
2023-02-25T05:30:13.518Z,13.83
2023-02-25T05:32:41.764Z,19.83
2023-02-25T05:35:12.088Z,13.03
2023-02-25T05:37:40.280Z,7.13
2023-02-25T05:40:10.191Z,12.97
2023-02-25T05:42:38.521Z,8.60
2023-02-25T05:45:09.471Z,11.93
2023-02-25T05:47:39.654Z,17.17
2023-02-25T05:50:08.752Z,16.90
2023-02-25T05:52:36.868Z,18.93
2023-02-25T05:55:05.573Z,15.73
2023-02-25T05:57:36.459Z,11.57
2023-02-25T06:00:10.528Z,11.97
2023-02-25T06:02:45.226Z,8.07
2023-02-25T06:05:16.453Z,11.90
2023-02-25T06:07:44.580Z,17.23
2023-02-25T06:10:15.013Z,11.37
2023-02-25T06:12:46.633Z,17.07
2023-02-25T06:15:16.301Z,14.93
2023-02-25T06:17:44.453Z,16.77
2023-02-25T06:20:15.523Z,11.73
2023-02-25T06:22:44.144Z,10.97
2023-02-25T06:25:12.266Z,4.33
2023-02-25T06:27:40.330Z,4.83
2023-02-25T06:30:09.848Z,2.13
2023-02-25T06:32:42.281Z,3.23
2023-02-25T06:35:14.207Z,1.03
2023-02-25T06:37:42.985Z,3.73
2023-02-25T06:40:14.360Z,2.97
2023-02-25T06:42:44.772Z,2.30
2023-02-25T06:45:13.114Z,2.57
2023-02-25T06:47:45.321Z,1.87
2023-02-25T06:50:15.908Z,2.63
2023-02-25T06:52:46.154Z,2.67
2023-02-25T06:55:14.337Z,6.27
2023-02-25T06:57:44.877Z,2.40
2023-02-25T07:00:16.183Z,2.23
2023-02-25T07:02:45.661Z,5.93
2023-02-25T07:05:13.781Z,3.80
2023-02-25T07:07:41.906Z,4.00
2023-02-25T07:10:11.858Z,6.27
2023-02-25T07:12:42.309Z,4.90
2023-02-25T07:15:11.350Z,5.30
2023-02-25T07:17:42.538Z,4.57
2023-02-25T07:20:13.389Z,1.70
2023-02-25T07:22:44.840Z,3.60
2023-02-25T07:25:13.038Z,7.40
2023-02-25T07:27:44.874Z,8.20
2023-02-25T07:30:14.538Z,4.30
2023-02-25T07:32:43.615Z,6.67
2023-02-25T07:35:13.475Z,8.33
2023-02-25T07:37:41.626Z,6.73
2023-02-25T07:40:12.931Z,12.57
2023-02-25T07:42:43.513Z,10.23
2023-02-25T07:45:13.406Z,5.40
2023-02-25T07:47:41.500Z,6.07
2023-02-25T07:50:13.046Z,8.07
2023-02-25T07:52:41.335Z,7.27
2023-02-25T07:55:12.578Z,8.77
2023-02-25T07:57:40.730Z,10.17
2023-02-25T08:00:12.101Z,7.07
2023-02-25T08:02:43.334Z,6.00
2023-02-25T08:05:13.377Z,6.77
2023-02-25T08:07:41.543Z,4.83
2023-02-25T08:10:12.760Z,6.37
2023-02-25T08:12:40.938Z,4.73
2023-02-25T08:15:12.444Z,2.73
2023-02-25T08:17:42.623Z,5.77
2023-02-25T08:20:13.934Z,5.27
2023-02-25T08:22:42.100Z,5.90
2023-02-25T08:25:11.030Z,3.63
2023-02-25T08:27:39.367Z,5.80
2023-02-25T08:30:11.483Z,3.87
2023-02-25T08:32:40.497Z,4.57
2023-02-25T08:35:12.696Z,6.57
2023-02-25T08:37:40.950Z,4.03
2023-02-25T08:40:10.801Z,4.43
2023-02-25T08:42:39.286Z,5.83
2023-02-25T08:45:08.328Z,6.37
2023-02-25T08:47:36.729Z,6.97
2023-02-25T08:50:06.028Z,7.53
2023-02-25T08:52:36.477Z,6.07
2023-02-25T08:55:05.755Z,4.00
2023-02-25T08:57:34.379Z,6.20
2023-02-25T09:00:05.915Z,5.87
2023-02-25T09:02:34.846Z,7.10
2023-02-25T09:05:04.315Z,3.30
2023-02-25T09:07:32.502Z,9.60
2023-02-25T09:10:03.478Z,9.17
2023-02-25T09:12:36.253Z,3.90
2023-02-25T09:15:08.640Z,6.93
2023-02-25T09:17:36.868Z,4.37
2023-02-25T09:20:11.805Z,7.33
2023-02-25T09:22:43.030Z,6.97
2023-02-25T09:25:13.865Z,6.33
2023-02-25T09:27:42.189Z,3.27
2023-02-25T09:30:11.620Z,8.07
2023-02-25T09:32:40.078Z,7.63
2023-02-25T09:35:09.931Z,9.17
2023-02-25T09:37:38.156Z,7.23
2023-02-25T09:40:09.864Z,2.70
2023-02-25T09:42:50.552Z,5.60
2023-02-25T09:45:26.100Z,5.77
2023-02-25T09:47:58.845Z,4.40
2023-02-25T09:50:31.127Z,6.23
2023-02-25T09:53:07.532Z,9.70
2023-02-25T09:55:38.020Z,4.53
2023-02-25T09:58:22.720Z,3.10
2023-02-25T10:00:59.084Z,3.67
2023-02-25T10:03:40.952Z,7.67
2023-02-25T10:06:19.412Z,7.50
2023-02-25T10:08:57.839Z,2.77
2023-02-25T10:11:36.834Z,5.50
2023-02-25T10:14:20.853Z,6.60
2023-02-25T10:16:58.096Z,4.80
2023-02-25T10:19:43.313Z,5.47
2023-02-25T10:22:34.517Z,6.27
2023-02-25T10:25:18.310Z,3.30
2023-02-25T10:27:57.547Z,4.63
2023-02-25T10:30:33.346Z,5.90
2023-02-25T10:33:08.860Z,5.57
2023-02-25T10:35:42.017Z,4.70
2023-02-25T10:38:12.703Z,5.83
2023-02-25T10:40:41.899Z,3.93
2023-02-25T10:43:21.189Z,4.73
2023-02-25T10:46:00.809Z,5.30
2023-02-25T10:48:48.262Z,7.00
2023-02-25T10:51:23.317Z,3.30
2023-02-25T10:54:26.517Z,3.83
2023-02-25T10:57:00.794Z,8.33
2023-02-25T11:00:03.239Z,1.00
2023-02-25T11:02:42.340Z,7.87
2023-02-25T11:05:31.705Z,3.17
2023-02-25T11:08:00.103Z,1.30
2023-02-25T11:10:28.472Z,3.03
2023-02-25T11:12:58.787Z,3.63
2023-02-25T11:15:44.858Z,5.13
2023-02-25T11:18:23.064Z,4.63
2023-02-25T11:20:54.722Z,2.73
2023-02-25T11:23:36.640Z,4.30
2023-02-25T11:26:08.153Z,1.27
2023-02-25T11:28:45.149Z,2.07
2023-02-25T11:31:19.477Z,1.13
2023-02-25T11:33:53.101Z,3.13
2023-02-25T11:36:24.393Z,3.23
2023-02-25T11:39:07.722Z,3.53
2023-02-25T11:41:35.888Z,2.03
2023-02-25T11:44:22.144Z,2.77
2023-02-25T11:47:00.135Z,1.63
2023-02-25T11:49:42.261Z,2.07
2023-02-25T11:52:15.023Z,2.10
2023-02-25T11:54:54.077Z,1.10
2023-02-25T11:57:34.075Z,4.03
2023-02-25T12:00:19.346Z,1.77
2023-02-25T12:02:59.272Z,2.23
2023-02-25T12:05:52.581Z,0.80
2023-02-25T12:08:41.329Z,2.90
2023-02-25T12:11:41.447Z,1.70
2023-02-25T12:14:54.238Z,1.20
2023-02-25T12:17:49.829Z,4.37
2023-02-25T12:20:59.185Z,1.77
2023-02-25T12:23:54.842Z,1.17
2023-02-25T12:26:34.564Z,1.07
2023-02-25T12:29:16.709Z,5.20
2023-02-25T12:32:05.579Z,2.43
2023-02-25T12:35:19.577Z,1.43
2023-02-25T12:38:21.337Z,3.40
2023-02-25T12:41:10.469Z,4.50
2023-02-25T12:43:49.718Z,1.80
2023-02-25T12:46:44.997Z,1.53
2023-02-25T12:49:52.163Z,2.13
2023-02-25T12:52:25.982Z,8.93
2023-02-25T12:55:24.808Z,1.17
2023-02-25T12:58:26.815Z,3.43
2023-02-25T13:01:28.215Z,1.37
2023-02-25T13:04:24.516Z,3.83
2023-02-25T13:07:24.415Z,3.30
2023-02-25T13:10:22.088Z,1.70
2023-02-25T13:13:04.483Z,2.70
2023-02-25T13:15:42.607Z,2.43
2023-02-25T13:18:20.866Z,2.60
2023-02-25T13:20:59.891Z,2.03
2023-02-25T13:23:48.501Z,2.50
2023-02-25T13:26:31.314Z,1.80
2023-02-25T13:29:13.488Z,2.83
2023-02-25T13:31:53.182Z,2.83
2023-02-25T13:34:33.240Z,2.83
2023-02-25T13:37:41.097Z,5.23
2023-02-25T13:40:29.639Z,2.43
2023-02-25T13:43:31.377Z,1.53
2023-02-25T13:46:27.255Z,3.33
2023-02-25T13:49:18.577Z,6.13
2023-02-25T13:52:16.862Z,3.03
2023-02-25T13:55:14.012Z,3.70
2023-02-25T13:57:55.204Z,5.57
2023-02-25T14:01:05.329Z,3.23
2023-02-25T14:04:14.720Z,2.73
2023-02-25T14:07:06.741Z,4.43
2023-02-25T14:09:44.114Z,2.50
2023-02-25T14:12:24.362Z,3.50
2023-02-25T14:15:22.643Z,3.37
2023-02-25T14:18:16.742Z,2.33
2023-02-25T14:20:54.338Z,2.23
2023-02-25T14:23:34.277Z,3.47
2023-02-25T14:26:20.653Z,2.53
2023-02-25T14:29:04.548Z,3.13
2023-02-25T14:31:44.535Z,5.43
2023-02-25T14:34:28.027Z,4.00
2023-02-25T14:37:30.202Z,4.40
2023-02-25T14:40:28.082Z,6.67
2023-02-25T14:43:28.368Z,1.83
2023-02-25T14:46:10.707Z,6.20
2023-02-25T14:48:47.529Z,2.17
2023-02-25T14:51:55.263Z,7.20
2023-02-25T14:54:58.007Z,3.10
2023-02-25T14:58:06.162Z,2.40
2023-02-25T15:00:54.982Z,5.33
2023-02-25T15:03:53.187Z,3.03
2023-02-25T15:06:32.551Z,3.37
2023-02-25T15:09:24.705Z,2.63
2023-02-25T15:12:20.398Z,5.83
2023-02-25T15:15:16.808Z,11.73
2023-02-25T15:18:37.085Z,2.00
2023-02-25T15:21:41.634Z,6.13
2023-02-25T15:24:32.507Z,2.23
2023-02-25T15:27:01.500Z,2.73
2023-02-25T15:29:57.978Z,3.50
2023-02-25T15:32:30.034Z,1.43
2023-02-25T15:35:02.028Z,6.83
2023-02-25T15:37:33.709Z,1.10
2023-02-25T15:40:24.753Z,4.40
2023-02-25T15:42:55.069Z,3.80
2023-02-25T15:45:39.333Z,1.90
2023-02-25T15:48:32.722Z,2.87
2023-02-25T15:51:10.340Z,2.20
2023-02-25T15:53:48.053Z,3.77
2023-02-25T15:56:47.684Z,3.73
2023-02-25T15:59:48.536Z,5.03
2023-02-25T16:02:42.133Z,2.53
2023-02-25T16:05:23.615Z,3.00
2023-02-25T16:08:13.254Z,1.80
2023-02-25T16:10:48.673Z,3.73
2023-02-25T16:13:23.938Z,3.17
2023-02-25T16:15:56.172Z,5.67
2023-02-25T16:18:32.080Z,6.83
2023-02-25T16:21:04.538Z,1.13
2023-02-25T16:23:41.675Z,15.23
2023-02-25T16:26:19.180Z,1.77
2023-02-25T16:28:55.151Z,6.13
2023-02-25T16:31:30.912Z,6.20
2023-02-25T16:34:05.318Z,5.27
2023-02-25T16:36:45.151Z,4.27
2023-02-25T16:39:19.645Z,3.37
2023-02-25T16:41:48.140Z,4.77
2023-02-25T16:44:21.678Z,3.67
2023-02-25T16:46:53.022Z,7.83
2023-02-25T16:49:29.785Z,3.67
2023-02-25T16:51:59.336Z,5.13
2023-02-25T16:54:36.209Z,8.40
2023-02-25T16:57:09.442Z,3.60
2023-02-25T16:59:39.697Z,2.53
2023-02-25T17:02:24.326Z,3.10
2023-02-25T17:04:54.753Z,2.37
2023-02-25T17:07:27.723Z,4.20
2023-02-25T17:10:00.644Z,4.30
2023-02-25T17:12:36.683Z,3.27
2023-02-25T17:15:09.455Z,4.37
2023-02-25T17:17:42.176Z,2.60
2023-02-25T17:20:18.141Z,3.73
2023-02-25T17:22:46.949Z,5.10
2023-02-25T17:25:17.995Z,3.90
2023-02-25T17:27:51.017Z,7.17
2023-02-25T17:30:35.958Z,3.27
2023-02-25T17:33:04.645Z,4.77
2023-02-25T17:35:36.848Z,5.17
2023-02-25T17:38:05.426Z,2.00
2023-02-25T17:40:35.693Z,4.60
2023-02-25T17:43:21.380Z,5.70
2023-02-25T17:45:59.154Z,3.90
2023-02-25T17:48:31.028Z,2.37
2023-02-25T17:51:01.374Z,2.97
2023-02-25T17:53:40.949Z,1.90
2023-02-25T17:56:17.548Z,4.27
2023-02-25T17:58:46.450Z,4.37
2023-02-25T18:01:46.436Z,3.17
2023-02-25T18:04:26.049Z,5.67
2023-02-25T18:06:55.378Z,3.73
2023-02-25T18:09:37.895Z,3.20
2023-02-25T18:12:21.346Z,7.33
2023-02-25T18:14:55.723Z,5.23
2023-02-25T18:17:28.199Z,9.43
2023-02-25T18:19:58.393Z,4.67
2023-02-25T18:22:33.508Z,8.13
2023-02-25T18:25:03.790Z,12.50
2023-02-25T18:27:37.453Z,6.43
2023-02-25T18:30:19.744Z,7.40
2023-02-25T18:32:48.442Z,19.63
2023-02-25T18:35:17.726Z,14.37
2023-02-25T18:37:47.105Z,12.53
2023-02-25T18:40:17.894Z,6.53
2023-02-25T18:42:47.462Z,6.17
2023-02-25T18:45:17.101Z,3.90
2023-02-25T18:47:45.510Z,5.10
2023-02-25T18:50:16.344Z,6.07
2023-02-25T18:52:44.793Z,7.33
2023-02-25T18:55:18.614Z,7.50
2023-02-25T18:57:48.198Z,6.17
2023-02-25T19:00:18.619Z,8.40
2023-02-25T19:02:49.828Z,6.17
2023-02-25T19:05:18.991Z,5.30
2023-02-25T19:07:50.012Z,7.40
2023-02-25T19:10:19.639Z,5.77
2023-02-25T19:12:50.846Z,6.93
2023-02-25T19:15:22.657Z,3.73
2023-02-25T19:17:51.152Z,11.03
2023-02-25T19:20:21.341Z,5.67
2023-02-25T19:22:50.846Z,7.67
2023-02-25T19:25:22.141Z,4.87
2023-02-25T19:27:55.468Z,6.83
2023-02-25T19:30:29.180Z,5.33
2023-02-25T19:33:03.493Z,4.40
2023-02-25T19:35:34.186Z,7.40
2023-02-25T19:38:02.810Z,10.33
2023-02-25T19:40:33.798Z,8.00
2023-02-25T19:43:04.624Z,8.23
2023-02-25T19:45:33.733Z,6.47
2023-02-25T19:48:04.620Z,5.10
2023-02-25T19:50:35.622Z,5.83
2023-02-25T19:53:06.781Z,6.47
2023-02-25T19:55:35.177Z,7.77
2023-02-25T19:58:04.738Z,7.00
2023-02-25T20:00:33.395Z,13.67
2023-02-25T20:03:01.612Z,2.40
2023-02-25T20:05:30.128Z,4.23
2023-02-25T20:07:58.335Z,5.10
2023-02-25T20:10:26.504Z,3.30
2023-02-25T20:12:55.211Z,6.30
2023-02-25T20:15:24.729Z,2.80
2023-02-25T20:17:55.001Z,1.77
2023-02-25T20:20:25.403Z,3.50
2023-02-25T20:22:53.563Z,3.27
2023-02-25T20:25:22.382Z,2.87
2023-02-25T20:27:51.410Z,2.77
2023-02-25T20:30:19.828Z,2.37
2023-02-25T20:32:49.513Z,2.30
2023-02-25T20:35:21.848Z,3.57
2023-02-25T20:38:07.114Z,4.33
2023-02-25T20:40:37.776Z,2.03
2023-02-25T20:43:06.766Z,1.93
2023-02-25T20:45:37.840Z,4.20
2023-02-25T20:48:17.312Z,4.57
2023-02-25T20:50:45.918Z,1.43
2023-02-25T20:53:14.448Z,1.37
2023-02-25T20:55:45.109Z,5.83
2023-02-25T20:58:13.276Z,5.70
2023-02-25T21:00:44.006Z,3.50
2023-02-25T21:03:13.626Z,2.47
2023-02-25T21:05:41.972Z,1.63
2023-02-25T21:08:12.726Z,2.57
2023-02-25T21:10:40.887Z,1.53
2023-02-25T21:13:09.106Z,1.17
2023-02-25T21:16:09.245Z,4.60
2023-02-25T21:18:39.362Z,1.27
2023-02-25T21:21:09.472Z,3.10
2023-02-25T21:23:38.949Z,2.73
2023-02-25T21:26:11.198Z,1.07
2023-02-25T21:28:42.324Z,6.93
2023-02-25T21:31:12.556Z,2.30
2023-02-25T21:33:43.146Z,1.10
2023-02-25T21:36:16.654Z,1.50
2023-02-25T21:39:04.732Z,1.53
2023-02-25T21:41:36.451Z,0.90
2023-02-25T21:44:07.692Z,1.83
2023-02-25T21:46:35.921Z,0.87
2023-02-25T21:49:05.621Z,0.73
2023-02-25T21:51:36.320Z,4.07
2023-02-25T21:54:04.913Z,2.03
2023-02-25T21:56:33.470Z,2.53
2023-02-25T21:59:03.832Z,3.63
2023-02-25T22:01:36.520Z,1.10
2023-02-25T22:04:06.497Z,1.43
2023-02-25T22:06:36.896Z,3.40
2023-02-25T22:09:07.651Z,1.33
2023-02-25T22:11:37.389Z,2.87
2023-02-25T22:14:09.680Z,1.90
2023-02-25T22:16:39.037Z,1.87
2023-02-25T22:19:08.696Z,2.30
2023-02-25T22:21:39.534Z,3.00
2023-02-25T22:24:10.577Z,4.40
2023-02-25T22:26:42.241Z,3.23
2023-02-25T22:29:12.742Z,3.90
2023-02-25T22:31:41.059Z,2.67
2023-02-25T22:34:11.746Z,3.20
2023-02-25T22:36:39.911Z,3.97
2023-02-25T22:39:09.619Z,5.80
2023-02-25T22:41:40.208Z,5.53
2023-02-25T22:44:10.655Z,2.10
2023-02-25T22:46:41.079Z,3.17
2023-02-25T22:49:12.319Z,5.53
2023-02-25T22:51:44.735Z,2.93
2023-02-25T22:54:17.123Z,3.40
2023-02-25T22:56:46.246Z,4.23
2023-02-25T22:59:14.918Z,3.80
2023-02-25T23:01:43.124Z,2.33
2023-02-25T23:04:12.698Z,7.20
2023-02-25T23:06:44.374Z,3.43
2023-02-25T23:09:14.180Z,7.43
2023-02-25T23:11:43.793Z,4.87
2023-02-25T23:14:12.727Z,6.83
2023-02-25T23:16:45.746Z,2.43
2023-02-25T23:19:17.545Z,2.20
2023-02-25T23:21:45.946Z,1.83
2023-02-25T23:24:17.498Z,2.80
2023-02-25T23:26:50.110Z,1.70
2023-02-25T23:29:18.316Z,3.03
2023-02-25T23:31:50.220Z,2.10
2023-02-25T23:34:24.942Z,1.53
2023-02-25T23:36:56.561Z,4.67
2023-02-25T23:39:25.455Z,4.37
2023-02-25T23:41:53.787Z,3.87
2023-02-25T23:44:22.043Z,4.53
2023-02-25T23:46:52.814Z,1.77
2023-02-25T23:49:22.795Z,3.97
2023-02-25T23:51:53.193Z,2.67
2023-02-25T23:54:22.862Z,6.37
2023-02-25T23:56:51.777Z,9.23
2023-02-25T23:59:22.799Z,3.80
